sensor_id;sensor_type;location;lat;lon;timestamp;P1;durP1;ratioP1;P2;durP2;ratioP2
51529;SDS011;37613;51.788;21.582;2023-03-21T00:06:10;62.40;;;37.90;;
51529;SDS011;37613;51.788;21.582;2023-03-21T00:10:20;62.00;;;38.40;;
51529;SDS011;37613;51.788;21.582;2023-03-21T00:14:25;43.80;;;30.40;;
51529;SDS011;37613;51.788;21.582;2023-03-21T00:18:31;37.80;;;27.10;;
51529;SDS011;37613;51.788;21.582;2023-03-21T00:22:52;41.70;;;27.90;;
51529;SDS011;37613;51.788;21.582;2023-03-21T00:26:56;40.50;;;28.00;;
51529;SDS011;37613;51.788;21.582;2023-03-21T00:31:05;38.40;;;27.40;;
51529;SDS011;37613;51.788;21.582;2023-03-21T00:35:11;37.90;;;26.20;;
51529;SDS011;37613;51.788;21.582;2023-03-21T00:39:16;41.30;;;28.20;;
51529;SDS011;37613;51.788;21.582;2023-03-21T00:43:24;35.50;;;25.10;;
51529;SDS011;37613;51.788;21.582;2023-03-21T00:47:33;36.30;;;24.50;;
51529;SDS011;37613;51.788;21.582;2023-03-21T00:51:41;34.90;;;24.20;;
51529;SDS011;37613;51.788;21.582;2023-03-21T00:55:56;36.40;;;24.20;;
51529;SDS011;37613;51.788;21.582;2023-03-21T01:00:17;34.10;;;24.60;;
51529;SDS011;37613;51.788;21.582;2023-03-21T01:04:20;31.30;;;22.50;;
51529;SDS011;37613;51.788;21.582;2023-03-21T01:08:27;32.70;;;21.60;;
51529;SDS011;37613;51.788;21.582;2023-03-21T01:12:34;33.80;;;22.70;;
51529;SDS011;37613;51.788;21.582;2023-03-21T01:21:20;35.30;;;21.10;;
51529;SDS011;37613;51.788;21.582;2023-03-21T01:30:08;38.90;;;23.20;;
51529;SDS011;37613;51.788;21.582;2023-03-21T01:34:14;33.10;;;21.30;;
51529;SDS011;37613;51.788;21.582;2023-03-21T01:38:17;32.70;;;21.90;;
51529;SDS011;37613;51.788;21.582;2023-03-21T01:42:22;29.00;;;19.30;;
51529;SDS011;37613;51.788;21.582;2023-03-21T01:50:39;34.30;;;20.40;;
51529;SDS011;37613;51.788;21.582;2023-03-21T01:54:45;33.50;;;20.10;;
51529;SDS011;37613;51.788;21.582;2023-03-21T01:58:51;33.40;;;19.80;;
51529;SDS011;37613;51.788;21.582;2023-03-21T02:03:08;35.40;;;21.00;;
51529;SDS011;37613;51.788;21.582;2023-03-21T02:07:18;32.20;;;20.00;;
51529;SDS011;37613;51.788;21.582;2023-03-21T02:16:11;32.70;;;20.80;;
51529;SDS011;37613;51.788;21.582;2023-03-21T02:29:22;37.90;;;20.50;;
51529;SDS011;37613;51.788;21.582;2023-03-21T02:34:14;34.00;;;20.30;;
51529;SDS011;37613;51.788;21.582;2023-03-21T02:47:50;29.20;;;18.70;;
51529;SDS011;37613;51.788;21.582;2023-03-21T02:51:57;33.10;;;19.30;;
51529;SDS011;37613;51.788;21.582;2023-03-21T02:56:22;32.30;;;19.10;;
51529;SDS011;37613;51.788;21.582;2023-03-21T03:00:32;34.80;;;19.10;;
51529;SDS011;37613;51.788;21.582;2023-03-21T03:04:39;34.90;;;19.00;;
51529;SDS011;37613;51.788;21.582;2023-03-21T03:18:25;35.80;;;20.50;;
51529;SDS011;37613;51.788;21.582;2023-03-21T03:22:55;32.20;;;18.90;;
51529;SDS011;37613;51.788;21.582;2023-03-21T03:27:36;34.00;;;20.20;;
51529;SDS011;37613;51.788;21.582;2023-03-21T03:36:37;30.70;;;18.50;;
51529;SDS011;37613;51.788;21.582;2023-03-21T03:40:56;32.20;;;19.00;;
51529;SDS011;37613;51.788;21.582;2023-03-21T03:58:24;30.90;;;17.20;;
51529;SDS011;37613;51.788;21.582;2023-03-21T04:06:43;35.50;;;19.50;;
51529;SDS011;37613;51.788;21.582;2023-03-21T04:15:44;37.60;;;19.20;;
51529;SDS011;37613;51.788;21.582;2023-03-21T04:19:52;49.00;;;30.30;;
51529;SDS011;37613;51.788;21.582;2023-03-21T04:24:04;41.20;;;25.90;;
51529;SDS011;37613;51.788;21.582;2023-03-21T04:28:18;114.10;;;73.30;;
51529;SDS011;37613;51.788;21.582;2023-03-21T04:37:18;49.30;;;33.30;;
51529;SDS011;37613;51.788;21.582;2023-03-21T04:41:24;45.00;;;28.40;;
51529;SDS011;37613;51.788;21.582;2023-03-21T04:45:40;35.50;;;21.60;;
51529;SDS011;37613;51.788;21.582;2023-03-21T04:49:46;33.90;;;19.80;;
51529;SDS011;37613;51.788;21.582;2023-03-21T04:59:06;32.70;;;19.50;;
51529;SDS011;37613;51.788;21.582;2023-03-21T05:03:14;32.10;;;19.20;;
51529;SDS011;37613;51.788;21.582;2023-03-21T05:07:25;38.90;;;23.30;;
51529;SDS011;37613;51.788;21.582;2023-03-21T05:11:36;43.30;;;25.00;;
51529;SDS011;37613;51.788;21.582;2023-03-21T05:15:43;29.90;;;19.50;;
51529;SDS011;37613;51.788;21.582;2023-03-21T05:19:51;29.80;;;18.50;;
51529;SDS011;37613;51.788;21.582;2023-03-21T05:23:59;47.80;;;32.80;;
51529;SDS011;37613;51.788;21.582;2023-03-21T05:28:05;32.80;;;19.50;;
51529;SDS011;37613;51.788;21.582;2023-03-21T05:32:19;31.30;;;19.30;;
51529;SDS011;37613;51.788;21.582;2023-03-21T05:36:27;34.40;;;20.00;;
51529;SDS011;37613;51.788;21.582;2023-03-21T05:40:34;37.80;;;21.80;;
51529;SDS011;37613;51.788;21.582;2023-03-21T05:45:01;33.30;;;19.40;;
51529;SDS011;37613;51.788;21.582;2023-03-21T05:49:09;36.50;;;20.90;;
51529;SDS011;37613;51.788;21.582;2023-03-21T05:53:14;34.40;;;19.70;;
51529;SDS011;37613;51.788;21.582;2023-03-21T05:57:17;32.90;;;18.80;;
51529;SDS011;37613;51.788;21.582;2023-03-21T06:01:22;27.90;;;17.70;;
51529;SDS011;37613;51.788;21.582;2023-03-21T06:05:48;36.10;;;21.50;;
51529;SDS011;37613;51.788;21.582;2023-03-21T06:09:59;56.70;;;36.90;;
51529;SDS011;37613;51.788;21.582;2023-03-21T06:14:13;55.30;;;35.30;;
51529;SDS011;37613;51.788;21.582;2023-03-21T06:18:21;45.90;;;27.20;;
51529;SDS011;37613;51.788;21.582;2023-03-21T06:22:30;36.60;;;23.40;;
51529;SDS011;37613;51.788;21.582;2023-03-21T06:26:35;34.30;;;22.40;;
51529;SDS011;37613;51.788;21.582;2023-03-21T06:30:46;33.40;;;22.20;;
51529;SDS011;37613;51.788;21.582;2023-03-21T06:34:53;35.90;;;20.20;;
51529;SDS011;37613;51.788;21.582;2023-03-21T06:39:04;32.10;;;19.30;;
51529;SDS011;37613;51.788;21.582;2023-03-21T06:43:16;34.60;;;20.40;;
51529;SDS011;37613;51.788;21.582;2023-03-21T06:47:21;29.00;;;18.80;;
51529;SDS011;37613;51.788;21.582;2023-03-21T06:51:26;32.00;;;19.20;;
51529;SDS011;37613;51.788;21.582;2023-03-21T06:55:36;28.40;;;17.90;;
51529;SDS011;37613;51.788;21.582;2023-03-21T06:59:47;28.30;;;17.70;;
51529;SDS011;37613;51.788;21.582;2023-03-21T07:03:58;26.90;;;17.90;;
51529;SDS011;37613;51.788;21.582;2023-03-21T07:08:08;25.60;;;17.50;;
51529;SDS011;37613;51.788;21.582;2023-03-21T07:12:18;28.60;;;18.30;;
51529;SDS011;37613;51.788;21.582;2023-03-21T07:16:20;33.00;;;20.90;;
51529;SDS011;37613;51.788;21.582;2023-03-21T07:20:35;26.00;;;17.90;;
51529;SDS011;37613;51.788;21.582;2023-03-21T07:24:49;34.10;;;22.30;;
51529;SDS011;37613;51.788;21.582;2023-03-21T07:29:01;25.40;;;16.50;;
51529;SDS011;37613;51.788;21.582;2023-03-21T07:33:09;28.50;;;18.20;;
51529;SDS011;37613;51.788;21.582;2023-03-21T07:37:23;24.10;;;16.90;;
51529;SDS011;37613;51.788;21.582;2023-03-21T07:41:34;28.20;;;18.30;;
51529;SDS011;37613;51.788;21.582;2023-03-21T07:45:51;25.70;;;17.80;;
51529;SDS011;37613;51.788;21.582;2023-03-21T07:50:20;25.40;;;17.80;;
51529;SDS011;37613;51.788;21.582;2023-03-21T07:54:38;24.50;;;15.90;;
51529;SDS011;37613;51.788;21.582;2023-03-21T07:58:51;24.90;;;16.80;;
51529;SDS011;37613;51.788;21.582;2023-03-21T08:02:54;22.50;;;15.20;;
51529;SDS011;37613;51.788;21.582;2023-03-21T08:06:58;19.70;;;14.50;;
51529;SDS011;37613;51.788;21.582;2023-03-21T08:11:02;24.00;;;16.60;;
51529;SDS011;37613;51.788;21.582;2023-03-21T08:15:19;21.20;;;14.80;;
51529;SDS011;37613;51.788;21.582;2023-03-21T08:19:41;22.80;;;16.10;;
51529;SDS011;37613;51.788;21.582;2023-03-21T08:23:55;21.60;;;14.80;;
51529;SDS011;37613;51.788;21.582;2023-03-21T08:32:26;20.80;;;14.50;;
51529;SDS011;37613;51.788;21.582;2023-03-21T08:36:31;19.90;;;14.80;;
51529;SDS011;37613;51.788;21.582;2023-03-21T08:40:33;23.90;;;16.90;;
51529;SDS011;37613;51.788;21.582;2023-03-21T08:44:41;21.80;;;14.70;;
51529;SDS011;37613;51.788;21.582;2023-03-21T08:48:47;21.50;;;15.00;;
51529;SDS011;37613;51.788;21.582;2023-03-21T08:52:55;16.60;;;11.60;;
51529;SDS011;37613;51.788;21.582;2023-03-21T08:57:01;18.50;;;11.50;;
51529;SDS011;37613;51.788;21.582;2023-03-21T09:01:06;20.60;;;12.20;;
51529;SDS011;37613;51.788;21.582;2023-03-21T09:05:14;18.50;;;12.20;;
51529;SDS011;37613;51.788;21.582;2023-03-21T09:09:20;15.60;;;10.80;;
51529;SDS011;37613;51.788;21.582;2023-03-21T09:13:34;20.90;;;14.00;;
51529;SDS011;37613;51.788;21.582;2023-03-21T09:17:53;20.20;;;14.90;;
51529;SDS011;37613;51.788;21.582;2023-03-21T09:22:03;71.60;;;48.60;;
51529;SDS011;37613;51.788;21.582;2023-03-21T09:26:09;20.40;;;15.60;;
51529;SDS011;37613;51.788;21.582;2023-03-21T09:30:21;78.00;;;46.80;;
51529;SDS011;37613;51.788;21.582;2023-03-21T09:34:24;18.50;;;13.00;;
51529;SDS011;37613;51.788;21.582;2023-03-21T09:38:30;17.00;;;12.00;;
51529;SDS011;37613;51.788;21.582;2023-03-21T09:56:40;15.80;;;11.80;;
51529;SDS011;37613;51.788;21.582;2023-03-21T10:00:51;15.10;;;11.80;;
51529;SDS011;37613;51.788;21.582;2023-03-21T10:05:12;11.10;;;8.40;;
51529;SDS011;37613;51.788;21.582;2023-03-21T10:18:40;9.70;;;7.70;;
51529;SDS011;37613;51.788;21.582;2023-03-21T10:22:59;11.00;;;8.40;;
51529;SDS011;37613;51.788;21.582;2023-03-21T10:27:10;11.00;;;7.40;;
51529;SDS011;37613;51.788;21.582;2023-03-21T10:31:29;10.20;;;6.80;;
51529;SDS011;37613;51.788;21.582;2023-03-21T10:35:42;9.20;;;6.20;;
51529;SDS011;37613;51.788;21.582;2023-03-21T10:39:53;8.90;;;6.40;;
51529;SDS011;37613;51.788;21.582;2023-03-21T10:44:13;8.70;;;6.70;;
51529;SDS011;37613;51.788;21.582;2023-03-21T10:48:19;9.40;;;7.10;;
51529;SDS011;37613;51.788;21.582;2023-03-21T10:52:24;5.40;;;4.50;;
51529;SDS011;37613;51.788;21.582;2023-03-21T10:56:30;5.50;;;5.00;;
51529;SDS011;37613;51.788;21.582;2023-03-21T11:00:43;7.80;;;4.10;;
51529;SDS011;37613;51.788;21.582;2023-03-21T11:04:51;4.70;;;3.80;;
51529;SDS011;37613;51.788;21.582;2023-03-21T11:08:57;6.40;;;4.50;;
51529;SDS011;37613;51.788;21.582;2023-03-21T11:13:07;5.60;;;4.20;;
51529;SDS011;37613;51.788;21.582;2023-03-21T11:17:20;4.10;;;3.70;;
51529;SDS011;37613;51.788;21.582;2023-03-21T11:21:39;4.80;;;3.80;;
51529;SDS011;37613;51.788;21.582;2023-03-21T11:25:42;4.10;;;3.20;;
51529;SDS011;37613;51.788;21.582;2023-03-21T11:29:52;3.40;;;2.40;;
51529;SDS011;37613;51.788;21.582;2023-03-21T11:34:04;4.30;;;3.00;;
51529;SDS011;37613;51.788;21.582;2023-03-21T11:38:22;5.20;;;3.40;;
51529;SDS011;37613;51.788;21.582;2023-03-21T11:42:32;4.20;;;3.70;;
51529;SDS011;37613;51.788;21.582;2023-03-21T11:46:41;5.20;;;4.00;;
51529;SDS011;37613;51.788;21.582;2023-03-21T11:50:47;5.10;;;3.40;;
51529;SDS011;37613;51.788;21.582;2023-03-21T11:55:12;6.10;;;4.10;;
51529;SDS011;37613;51.788;21.582;2023-03-21T12:03:37;3.80;;;3.00;;
51529;SDS011;37613;51.788;21.582;2023-03-21T12:16:29;6.70;;;4.80;;
51529;SDS011;37613;51.788;21.582;2023-03-21T12:20:38;4.00;;;3.20;;
51529;SDS011;37613;51.788;21.582;2023-03-21T12:33:53;3.80;;;3.00;;
51529;SDS011;37613;51.788;21.582;2023-03-21T12:47:12;4.40;;;3.20;;
51529;SDS011;37613;51.788;21.582;2023-03-21T12:51:32;3.80;;;2.90;;
51529;SDS011;37613;51.788;21.582;2023-03-21T12:55:40;4.80;;;3.50;;
51529;SDS011;37613;51.788;21.582;2023-03-21T12:59:50;6.20;;;4.80;;
51529;SDS011;37613;51.788;21.582;2023-03-21T13:08:57;5.30;;;3.30;;
51529;SDS011;37613;51.788;21.582;2023-03-21T13:13:19;3.10;;;2.20;;
51529;SDS011;37613;51.788;21.582;2023-03-21T13:17:45;2.60;;;2.40;;
51529;SDS011;37613;51.788;21.582;2023-03-21T13:22:04;5.10;;;4.20;;
51529;SDS011;37613;51.788;21.582;2023-03-21T13:26:13;9.30;;;4.60;;
51529;SDS011;37613;51.788;21.582;2023-03-21T13:30:19;2.90;;;2.10;;
51529;SDS011;37613;51.788;21.582;2023-03-21T13:34:29;1.50;;;1.40;;
51529;SDS011;37613;51.788;21.582;2023-03-21T13:38:35;1.50;;;1.20;;
51529;SDS011;37613;51.788;21.582;2023-03-21T13:42:43;1.90;;;1.70;;
51529;SDS011;37613;51.788;21.582;2023-03-21T13:47:03;2.10;;;1.90;;
51529;SDS011;37613;51.788;21.582;2023-03-21T13:51:47;2.10;;;1.90;;
51529;SDS011;37613;51.788;21.582;2023-03-21T13:56:01;5.90;;;2.20;;
51529;SDS011;37613;51.788;21.582;2023-03-21T14:00:23;5.40;;;2.40;;
51529;SDS011;37613;51.788;21.582;2023-03-21T14:04:33;5.60;;;3.00;;
51529;SDS011;37613;51.788;21.582;2023-03-21T14:08:35;10.40;;;7.40;;
51529;SDS011;37613;51.788;21.582;2023-03-21T14:12:49;4.70;;;3.20;;
51529;SDS011;37613;51.788;21.582;2023-03-21T14:17:10;5.80;;;3.90;;
51529;SDS011;37613;51.788;21.582;2023-03-21T14:21:21;7.90;;;4.30;;
51529;SDS011;37613;51.788;21.582;2023-03-21T14:25:43;7.00;;;5.30;;
51529;SDS011;37613;51.788;21.582;2023-03-21T14:29:54;4.30;;;3.30;;
51529;SDS011;37613;51.788;21.582;2023-03-21T14:38:16;3.80;;;2.70;;
51529;SDS011;37613;51.788;21.582;2023-03-21T14:42:32;3.20;;;2.20;;
51529;SDS011;37613;51.788;21.582;2023-03-21T14:46:41;2.80;;;2.40;;
51529;SDS011;37613;51.788;21.582;2023-03-21T14:50:48;21.20;;;15.50;;
51529;SDS011;37613;51.788;21.582;2023-03-21T14:54:55;4.30;;;3.50;;
51529;SDS011;37613;51.788;21.582;2023-03-21T14:59:10;4.40;;;3.80;;
51529;SDS011;37613;51.788;21.582;2023-03-21T15:03:29;3.50;;;2.80;;
51529;SDS011;37613;51.788;21.582;2023-03-21T15:07:35;2.50;;;2.30;;
51529;SDS011;37613;51.788;21.582;2023-03-21T15:11:40;2.90;;;2.60;;
51529;SDS011;37613;51.788;21.582;2023-03-21T15:15:55;3.00;;;2.70;;
51529;SDS011;37613;51.788;21.582;2023-03-21T15:20:01;4.30;;;2.90;;
51529;SDS011;37613;51.788;21.582;2023-03-21T15:24:08;4.10;;;2.40;;
51529;SDS011;37613;51.788;21.582;2023-03-21T15:28:17;2.80;;;2.50;;
51529;SDS011;37613;51.788;21.582;2023-03-21T15:32:28;10.50;;;9.10;;
51529;SDS011;37613;51.788;21.582;2023-03-21T15:36:42;2.70;;;2.50;;
51529;SDS011;37613;51.788;21.582;2023-03-21T15:40:50;2.60;;;2.00;;
51529;SDS011;37613;51.788;21.582;2023-03-21T15:44:56;3.10;;;2.20;;
51529;SDS011;37613;51.788;21.582;2023-03-21T15:49:44;2.80;;;1.90;;
51529;SDS011;37613;51.788;21.582;2023-03-21T15:53:35;2.20;;;2.00;;
51529;SDS011;37613;51.788;21.582;2023-03-21T15:57:50;3.30;;;2.30;;
51529;SDS011;37613;51.788;21.582;2023-03-21T16:02:02;3.10;;;2.10;;
51529;SDS011;37613;51.788;21.582;2023-03-21T16:06:16;2.50;;;2.00;;
51529;SDS011;37613;51.788;21.582;2023-03-21T16:10:28;2.40;;;2.20;;
51529;SDS011;37613;51.788;21.582;2023-03-21T16:14:36;2.50;;;2.30;;
51529;SDS011;37613;51.788;21.582;2023-03-21T16:18:47;2.90;;;2.20;;
51529;SDS011;37613;51.788;21.582;2023-03-21T16:22:54;4.90;;;3.10;;
51529;SDS011;37613;51.788;21.582;2023-03-21T16:26:59;2.40;;;2.20;;
51529;SDS011;37613;51.788;21.582;2023-03-21T16:31:14;3.20;;;2.50;;
51529;SDS011;37613;51.788;21.582;2023-03-21T16:35:20;2.90;;;2.60;;
51529;SDS011;37613;51.788;21.582;2023-03-21T16:39:25;5.70;;;2.80;;
51529;SDS011;37613;51.788;21.582;2023-03-21T16:43:30;4.00;;;2.90;;
51529;SDS011;37613;51.788;21.582;2023-03-21T16:47:38;3.30;;;3.00;;
51529;SDS011;37613;51.788;21.582;2023-03-21T16:51:40;5.90;;;4.90;;
51529;SDS011;37613;51.788;21.582;2023-03-21T16:55:46;6.30;;;3.10;;
51529;SDS011;37613;51.788;21.582;2023-03-21T16:59:52;4.00;;;3.20;;
51529;SDS011;37613;51.788;21.582;2023-03-21T17:04:01;6.70;;;3.20;;
51529;SDS011;37613;51.788;21.582;2023-03-21T17:08:18;4.70;;;3.30;;
51529;SDS011;37613;51.788;21.582;2023-03-21T17:12:27;5.40;;;4.00;;
51529;SDS011;37613;51.788;21.582;2023-03-21T17:16:36;6.20;;;3.30;;
51529;SDS011;37613;51.788;21.582;2023-03-21T17:24:58;5.50;;;2.70;;
51529;SDS011;37613;51.788;21.582;2023-03-21T17:29:09;4.00;;;3.00;;
51529;SDS011;37613;51.788;21.582;2023-03-21T17:33:18;4.00;;;3.00;;
51529;SDS011;37613;51.788;21.582;2023-03-21T17:37:30;16.80;;;9.90;;
51529;SDS011;37613;51.788;21.582;2023-03-21T17:41:43;31.60;;;15.80;;
51529;SDS011;37613;51.788;21.582;2023-03-21T17:45:57;11.30;;;6.00;;
51529;SDS011;37613;51.788;21.582;2023-03-21T17:50:29;13.30;;;6.90;;
51529;SDS011;37613;51.788;21.582;2023-03-21T17:54:41;19.30;;;10.30;;
51529;SDS011;37613;51.788;21.582;2023-03-21T17:58:54;46.80;;;20.90;;
51529;SDS011;37613;51.788;21.582;2023-03-21T18:03:07;32.60;;;18.10;;
51529;SDS011;37613;51.788;21.582;2023-03-21T18:07:19;31.20;;;17.10;;
51529;SDS011;37613;51.788;21.582;2023-03-21T18:11:37;41.70;;;20.60;;
51529;SDS011;37613;51.788;21.582;2023-03-21T18:16:01;36.60;;;19.40;;
51529;SDS011;37613;51.788;21.582;2023-03-21T18:20:58;47.00;;;25.80;;
51529;SDS011;37613;51.788;21.582;2023-03-21T18:25:00;34.40;;;18.10;;
51529;SDS011;37613;51.788;21.582;2023-03-21T18:30:08;38.10;;;18.30;;
51529;SDS011;37613;51.788;21.582;2023-03-21T18:34:23;36.90;;;22.40;;
51529;SDS011;37613;51.788;21.582;2023-03-21T18:38:47;55.40;;;28.00;;
51529;SDS011;37613;51.788;21.582;2023-03-21T18:44:23;106.80;;;44.60;;
51529;SDS011;37613;51.788;21.582;2023-03-21T18:48:27;90.10;;;41.60;;
51529;SDS011;37613;51.788;21.582;2023-03-21T19:12:09;188.70;;;79.20;;
51529;SDS011;37613;51.788;21.582;2023-03-21T19:17:16;143.90;;;68.50;;
51529;SDS011;37613;51.788;21.582;2023-03-21T19:21:56;116.40;;;54.00;;
51529;SDS011;37613;51.788;21.582;2023-03-21T19:31:17;209.80;;;82.50;;
51529;SDS011;37613;51.788;21.582;2023-03-21T19:36:15;205.20;;;85.10;;
51529;SDS011;37613;51.788;21.582;2023-03-21T19:40:43;194.10;;;85.50;;
51529;SDS011;37613;51.788;21.582;2023-03-21T19:50:01;149.60;;;65.10;;
51529;SDS011;37613;51.788;21.582;2023-03-21T19:54:21;151.10;;;70.40;;
51529;SDS011;37613;51.788;21.582;2023-03-21T19:58:41;141.90;;;66.50;;
51529;SDS011;37613;51.788;21.582;2023-03-21T20:03:08;166.10;;;75.40;;
51529;SDS011;37613;51.788;21.582;2023-03-21T20:18:48;147.40;;;74.40;;
51529;SDS011;37613;51.788;21.582;2023-03-21T20:43:34;257.90;;;135.60;;
51529;SDS011;37613;51.788;21.582;2023-03-21T20:48:06;255.90;;;134.20;;
51529;SDS011;37613;51.788;21.582;2023-03-21T21:17:36;281.30;;;151.60;;
51529;SDS011;37613;51.788;21.582;2023-03-21T21:26:42;269.10;;;144.40;;
51529;SDS011;37613;51.788;21.582;2023-03-21T22:02:45;374.30;;;169.30;;
51529;SDS011;37613;51.788;21.582;2023-03-21T22:12:26;373.20;;;186.80;;
51529;SDS011;37613;51.788;21.582;2023-03-21T22:17:03;347.30;;;169.10;;
51529;SDS011;37613;51.788;21.582;2023-03-21T22:32:21;299.00;;;132.30;;
51529;SDS011;37613;51.788;21.582;2023-03-21T22:42:44;254.40;;;115.00;;
51529;SDS011;37613;51.788;21.582;2023-03-21T22:48:01;239.20;;;104.70;;
51529;SDS011;37613;51.788;21.582;2023-03-21T22:58:36;169.60;;;77.40;;
51529;SDS011;37613;51.788;21.582;2023-03-21T23:03:28;215.80;;;97.40;;
51529;SDS011;37613;51.788;21.582;2023-03-21T23:08:33;173.90;;;72.10;;
51529;SDS011;37613;51.788;21.582;2023-03-21T23:29:41;102.50;;;47.00;;
51529;SDS011;37613;51.788;21.582;2023-03-21T23:45:52;105.60;;;47.90;;
51529;SDS011;37613;51.788;21.582;2023-03-21T23:55:19;92.80;;;45.40;;
